createdAt,value
2023-03-25T00:01:15.496Z,17.80
2023-03-25T00:03:46.482Z,17.80
2023-03-25T00:06:14.904Z,17.80
2023-03-25T00:08:43.283Z,17.80
2023-03-25T00:11:11.654Z,17.70
2023-03-25T00:13:40.630Z,17.70
2023-03-25T00:16:10.236Z,17.80
2023-03-25T00:18:38.759Z,17.90
2023-03-25T00:21:10.907Z,17.90
2023-03-25T00:23:39.799Z,17.90
2023-03-25T00:26:08.511Z,18.00
2023-03-25T00:28:38.134Z,17.90
2023-03-25T00:31:07.880Z,17.90
2023-03-25T00:33:36.484Z,17.90
2023-03-25T00:36:05.490Z,17.90
2023-03-25T00:38:37.977Z,17.80
2023-03-25T00:41:22.962Z,17.80
2023-03-25T00:43:53.236Z,17.80
2023-03-25T00:46:22.841Z,17.80
2023-03-25T00:48:52.511Z,17.80
2023-03-25T00:51:21.556Z,17.90
2023-03-25T00:53:54.066Z,17.80
2023-03-25T00:56:22.600Z,17.80
2023-03-25T00:58:51.018Z,17.80
2023-03-25T01:01:23.286Z,17.80
2023-03-25T01:03:57.681Z,17.80
2023-03-25T01:06:31.056Z,17.80
2023-03-25T01:09:01.540Z,17.80
2023-03-25T01:11:30.897Z,17.80
2023-03-25T01:14:00.221Z,17.80
2023-03-25T01:16:28.735Z,17.80
2023-03-25T01:18:57.176Z,17.80
2023-03-25T01:21:25.559Z,17.80
2023-03-25T01:23:53.896Z,17.80
2023-03-25T01:26:23.552Z,17.80
2023-03-25T01:28:51.852Z,17.80
2023-03-25T01:31:23.019Z,17.80
2023-03-25T01:33:51.542Z,17.80
2023-03-25T01:36:21.325Z,17.80
2023-03-25T01:38:50.526Z,17.80
2023-03-25T01:41:18.963Z,17.80
2023-03-25T01:46:44.810Z,17.70
2023-03-25T01:49:15.462Z,17.70
2023-03-25T01:51:45.568Z,17.70
2023-03-25T01:54:18.055Z,17.60
2023-03-25T01:56:47.710Z,17.60
2023-03-25T01:59:18.131Z,17.60
2023-03-25T02:01:47.913Z,17.70
2023-03-25T02:04:17.073Z,17.70
2023-03-25T02:06:46.500Z,17.70
2023-03-25T02:09:16.271Z,17.70
2023-03-25T02:11:44.633Z,17.70
2023-03-25T02:14:14.286Z,17.70
2023-03-25T02:16:47.573Z,17.70
2023-03-25T02:19:48.380Z,17.70
2023-03-25T02:22:43.310Z,17.70
2023-03-25T02:25:40.617Z,17.80
2023-03-25T02:28:11.766Z,17.80
2023-03-25T02:31:06.528Z,17.70
2023-03-25T02:34:08.295Z,17.70
2023-03-25T02:36:52.488Z,17.80
2023-03-25T02:39:23.351Z,17.80
2023-03-25T02:41:53.955Z,17.80
2023-03-25T02:44:26.509Z,17.70
2023-03-25T02:46:57.120Z,17.70
2023-03-25T02:49:26.963Z,17.70
2023-03-25T02:51:57.159Z,17.70
2023-03-25T02:54:27.101Z,17.70
2023-03-25T02:56:57.568Z,17.70
2023-03-25T02:59:33.066Z,17.70
2023-03-25T03:02:02.045Z,17.70
2023-03-25T03:04:30.393Z,17.80
2023-03-25T03:06:58.882Z,17.70
2023-03-25T03:09:33.301Z,17.70
2023-03-25T03:12:09.489Z,17.80
2023-03-25T03:14:49.271Z,17.80
2023-03-25T03:17:20.384Z,17.60
2023-03-25T03:19:50.793Z,17.60
2023-03-25T03:22:38.785Z,17.60
2023-03-25T03:25:12.243Z,17.70
2023-03-25T03:27:43.464Z,17.60
2023-03-25T03:30:16.089Z,17.60
2023-03-25T03:32:49.806Z,17.60
2023-03-25T03:35:19.967Z,17.60
2023-03-25T03:37:50.541Z,17.60
2023-03-25T03:40:21.554Z,17.60
2023-03-25T03:42:51.212Z,17.60
2023-03-25T03:45:21.183Z,17.60
2023-03-25T03:47:52.163Z,17.60
2023-03-25T03:50:21.769Z,17.60
2023-03-25T03:52:53.801Z,17.60
2023-03-25T03:55:24.789Z,17.60
2023-03-25T03:57:54.615Z,17.50
2023-03-25T04:00:25.730Z,17.50
2023-03-25T04:02:54.989Z,17.50
2023-03-25T04:05:23.647Z,17.50
2023-03-25T04:07:54.862Z,17.50
2023-03-25T04:10:29.630Z,17.50
2023-03-25T04:12:58.348Z,17.50
2023-03-25T04:15:28.873Z,17.50
2023-03-25T04:17:57.366Z,17.40
2023-03-25T04:20:29.659Z,17.50
2023-03-25T04:23:04.649Z,17.40
2023-03-25T04:25:34.346Z,17.50
2023-03-25T04:28:02.708Z,17.50
2023-03-25T04:30:34.136Z,17.40
2023-03-25T04:33:02.590Z,17.40
2023-03-25T04:35:32.941Z,17.40
2023-03-25T04:38:01.628Z,17.40
2023-03-25T04:40:30.060Z,17.40
2023-03-25T04:43:02.568Z,17.40
2023-03-25T04:45:36.297Z,17.40
2023-03-25T04:48:06.007Z,17.30
2023-03-25T04:50:34.363Z,17.40
2023-03-25T04:53:02.749Z,17.30
2023-03-25T04:55:31.460Z,17.30
2023-03-25T04:57:59.744Z,17.30
2023-03-25T05:00:29.456Z,17.30
2023-03-25T05:03:01.956Z,17.40
2023-03-25T05:05:30.676Z,17.50
2023-03-25T05:07:59.032Z,17.40
2023-03-25T05:10:31.825Z,17.50
2023-03-25T05:13:00.643Z,17.40
2023-03-25T05:15:32.475Z,17.40
2023-03-25T05:18:01.944Z,17.40
2023-03-25T05:20:30.824Z,17.40
2023-03-25T05:22:59.124Z,17.30
2023-03-25T05:25:36.025Z,17.30
2023-03-25T05:28:05.971Z,17.30
2023-03-25T05:30:39.101Z,17.30
2023-03-25T05:33:10.401Z,17.40
2023-03-25T05:35:38.874Z,17.40
2023-03-25T05:38:08.119Z,17.40
2023-03-25T05:40:37.777Z,17.40
2023-03-25T05:43:06.688Z,17.30
2023-03-25T05:45:37.146Z,17.30
2023-03-25T05:48:05.794Z,17.30
2023-03-25T05:50:34.160Z,17.40
2023-03-25T05:53:02.509Z,17.30
2023-03-25T05:55:33.673Z,17.40
2023-03-25T05:58:07.380Z,17.40
2023-03-25T06:00:37.453Z,17.30
2023-03-25T06:03:08.365Z,17.30
2023-03-25T06:05:37.225Z,17.30
2023-03-25T06:08:05.601Z,17.20
2023-03-25T06:10:36.760Z,17.10
2023-03-25T06:13:05.145Z,17.10
2023-03-25T06:15:39.035Z,17.20
2023-03-25T06:18:11.558Z,17.10
2023-03-25T06:20:39.923Z,17.20
2023-03-25T06:23:09.931Z,17.20
2023-03-25T06:25:38.275Z,17.20
2023-03-25T06:28:06.923Z,17.10
2023-03-25T06:30:35.281Z,17.10
2023-03-25T06:33:06.040Z,17.10
2023-03-25T06:35:35.814Z,17.00
2023-03-25T06:38:04.200Z,17.00
2023-03-25T06:40:32.596Z,17.10
2023-03-25T06:43:01.094Z,17.20
2023-03-25T06:45:29.486Z,17.10
2023-03-25T06:47:57.915Z,17.20
2023-03-25T06:50:26.357Z,17.10
2023-03-25T06:52:56.057Z,17.10
2023-03-25T06:55:24.357Z,17.10
2023-03-25T06:57:57.592Z,17.10
2023-03-25T07:00:27.014Z,17.20
2023-03-25T07:02:55.881Z,17.20
2023-03-25T07:05:27.582Z,17.10
2023-03-25T07:07:57.449Z,17.10
2023-03-25T07:10:26.045Z,17.10
2023-03-25T07:12:54.567Z,17.20
2023-03-25T07:15:23.065Z,17.10
2023-03-25T07:17:51.554Z,17.10
2023-03-25T07:20:20.361Z,17.20
2023-03-25T07:22:48.843Z,17.20
2023-03-25T07:25:18.968Z,17.20
2023-03-25T07:27:47.475Z,17.20
2023-03-25T07:30:16.169Z,17.20
2023-03-25T07:32:46.953Z,17.20
2023-03-25T07:35:15.489Z,17.20
2023-03-25T07:37:43.984Z,17.00
2023-03-25T07:40:13.284Z,16.90
2023-03-25T07:42:46.803Z,16.80
2023-03-25T07:45:15.750Z,16.80
2023-03-25T07:47:50.013Z,16.70
2023-03-25T07:50:18.938Z,16.70
2023-03-25T07:52:47.519Z,16.70
2023-03-25T07:55:17.864Z,16.60
2023-03-25T07:57:47.795Z,16.60
2023-03-25T08:00:16.489Z,16.60
2023-03-25T08:02:45.055Z,16.60
2023-03-25T08:05:21.196Z,16.60
2023-03-25T08:07:50.211Z,16.60
2023-03-25T08:10:19.173Z,16.60
2023-03-25T08:12:49.042Z,16.70
2023-03-25T08:15:25.230Z,16.60
2023-03-25T08:17:53.767Z,16.60
2023-03-25T08:20:22.502Z,16.70
2023-03-25T08:22:51.296Z,16.70
2023-03-25T08:25:19.862Z,16.70
2023-03-25T08:27:49.749Z,16.90
2023-03-25T08:30:18.306Z,17.10
2023-03-25T08:32:47.085Z,17.10
2023-03-25T08:35:17.792Z,17.20
2023-03-25T08:37:47.553Z,17.20
2023-03-25T08:40:21.021Z,17.20
2023-03-25T08:42:51.332Z,17.20
2023-03-25T08:45:20.042Z,17.30
2023-03-25T08:47:48.599Z,17.30
2023-03-25T08:50:19.471Z,17.20
2023-03-25T08:52:48.502Z,17.20
2023-03-25T08:55:17.798Z,17.20
2023-03-25T08:57:50.694Z,17.30
2023-03-25T09:00:24.147Z,17.30
2023-03-25T09:02:52.800Z,17.30
2023-03-25T09:05:21.441Z,17.30
2023-03-25T09:07:49.982Z,17.30
2023-03-25T09:10:18.591Z,17.30
2023-03-25T09:12:47.121Z,17.30
2023-03-25T09:15:18.048Z,17.30
2023-03-25T09:17:46.763Z,17.30
2023-03-25T09:20:15.375Z,17.30
2023-03-25T09:22:43.969Z,17.30
2023-03-25T09:25:13.974Z,17.30
2023-03-25T09:27:44.848Z,17.40
2023-03-25T09:30:15.854Z,17.40
2023-03-25T09:32:45.799Z,17.40
2023-03-25T09:35:19.754Z,17.40
2023-03-25T09:37:51.883Z,17.40
2023-03-25T09:40:21.663Z,17.40
2023-03-25T09:43:04.544Z,17.40
2023-03-25T09:45:35.932Z,17.40
2023-03-25T09:48:07.284Z,17.40
2023-03-25T09:50:36.147Z,17.40
2023-03-25T09:53:06.180Z,17.50
2023-03-25T09:55:36.934Z,17.40
2023-03-25T09:58:27.198Z,17.50
2023-03-25T10:00:57.895Z,17.60
2023-03-25T10:03:29.560Z,17.50
2023-03-25T10:06:18.659Z,17.50
2023-03-25T10:08:53.923Z,17.50
2023-03-25T10:11:29.288Z,17.50
2023-03-25T10:14:00.884Z,17.50
2023-03-25T10:16:32.595Z,17.40
2023-03-25T10:19:11.328Z,17.60
2023-03-25T10:21:41.355Z,17.60
2023-03-25T10:24:16.535Z,17.60
2023-03-25T10:26:46.875Z,17.60
2023-03-25T10:29:16.553Z,17.60
2023-03-25T10:31:50.654Z,17.60
2023-03-25T10:34:21.391Z,17.60
2023-03-25T10:36:55.032Z,17.60
2023-03-25T10:39:23.732Z,17.60
2023-03-25T10:41:56.940Z,17.60
2023-03-25T10:44:25.689Z,17.70
2023-03-25T10:46:57.409Z,17.70
2023-03-25T10:49:28.199Z,17.60
2023-03-25T10:51:57.621Z,17.70
2023-03-25T10:54:28.217Z,17.70
2023-03-25T10:56:57.545Z,17.70
2023-03-25T10:59:30.298Z,17.70
2023-03-25T11:01:58.761Z,17.60
2023-03-25T11:04:34.579Z,17.70
2023-03-25T11:07:05.642Z,17.60
2023-03-25T11:09:36.778Z,17.70
2023-03-25T11:12:07.182Z,17.70
2023-03-25T11:14:38.460Z,17.70
2023-03-25T11:17:09.419Z,17.70
2023-03-25T11:19:41.295Z,17.70
2023-03-25T11:22:11.315Z,17.80
2023-03-25T11:24:46.330Z,17.80
2023-03-25T11:27:22.834Z,17.80
2023-03-25T11:29:52.873Z,17.80
2023-03-25T11:32:25.243Z,17.80
2023-03-25T11:34:55.066Z,17.80
2023-03-25T11:37:24.395Z,17.80
2023-03-25T11:39:55.208Z,17.90
2023-03-25T11:42:32.567Z,17.80
2023-03-25T11:45:02.420Z,17.80
2023-03-25T11:47:32.583Z,17.90
2023-03-25T11:50:02.496Z,17.90
2023-03-25T11:52:36.124Z,17.90
2023-03-25T11:55:04.778Z,17.80
2023-03-25T11:57:36.492Z,17.80
2023-03-25T12:00:11.037Z,17.80
2023-03-25T12:02:40.189Z,17.90
2023-03-25T12:05:14.069Z,17.90
2023-03-25T12:07:43.328Z,17.90
2023-03-25T12:10:18.640Z,17.90
2023-03-25T12:12:54.307Z,17.90
2023-03-25T12:15:26.996Z,17.90
2023-03-25T12:18:04.334Z,17.90
2023-03-25T12:20:36.663Z,17.90
2023-03-25T12:23:13.912Z,17.90
2023-03-25T12:25:47.589Z,17.80
2023-03-25T12:28:57.811Z,17.90
2023-03-25T12:31:33.237Z,17.90
2023-03-25T12:34:08.143Z,17.90
2023-03-25T12:36:44.881Z,17.90
2023-03-25T12:39:29.332Z,17.90
2023-03-25T12:42:08.793Z,17.80
2023-03-25T12:44:46.108Z,17.90
2023-03-25T12:47:17.136Z,17.80
2023-03-25T12:49:57.656Z,17.80
2023-03-25T12:52:30.385Z,17.80
2023-03-25T12:55:08.132Z,17.80
2023-03-25T12:57:46.772Z,17.80
2023-03-25T13:00:26.707Z,17.80
2023-03-25T13:03:12.591Z,17.80
2023-03-25T13:05:42.759Z,17.80
2023-03-25T13:08:14.478Z,17.80
2023-03-25T13:10:42.808Z,17.80
2023-03-25T13:13:12.776Z,17.80
2023-03-25T13:15:42.525Z,17.80
2023-03-25T13:18:12.246Z,17.80
2023-03-25T13:20:42.540Z,17.80
2023-03-25T13:23:14.219Z,17.70
2023-03-25T13:25:45.705Z,17.60
2023-03-25T13:28:16.266Z,17.60
2023-03-25T13:30:45.908Z,17.50
2023-03-25T13:33:15.822Z,17.40
2023-03-25T13:35:45.751Z,17.50
2023-03-25T13:38:17.374Z,17.50
2023-03-25T13:40:50.286Z,17.50
2023-03-25T13:43:24.579Z,17.60
2023-03-25T13:45:56.249Z,17.50
2023-03-25T13:48:28.607Z,17.60
2023-03-25T13:51:08.737Z,17.60
2023-03-25T13:53:40.718Z,17.60
2023-03-25T13:56:32.868Z,17.60
2023-03-25T13:59:14.457Z,17.60
2023-03-25T14:01:57.593Z,17.60
2023-03-25T14:04:54.106Z,17.60
2023-03-25T14:07:47.888Z,17.60
2023-03-25T14:10:52.074Z,17.60
2023-03-25T14:13:22.886Z,17.60
2023-03-25T14:15:56.014Z,17.60
2023-03-25T14:18:24.375Z,17.60
2023-03-25T14:20:53.014Z,17.70
2023-03-25T14:23:23.021Z,17.70
2023-03-25T14:25:54.204Z,17.70
2023-03-25T14:28:33.458Z,17.70
2023-03-25T14:31:17.879Z,17.80
2023-03-25T14:34:14.629Z,17.80
2023-03-25T14:37:27.365Z,17.80
2023-03-25T14:39:59.330Z,17.90
2023-03-25T14:42:57.007Z,17.80
2023-03-25T14:45:44.073Z,17.80
2023-03-25T14:48:26.465Z,17.90
2023-03-25T14:51:09.511Z,17.90
2023-03-25T14:53:38.469Z,17.90
2023-03-25T14:56:07.975Z,17.90
2023-03-25T14:58:39.305Z,17.90
2023-03-25T15:01:11.342Z,18.00
2023-03-25T15:03:42.595Z,18.00
2023-03-25T15:06:14.091Z,18.10
2023-03-25T15:08:43.564Z,18.10
2023-03-25T15:11:14.591Z,18.00
2023-03-25T15:13:46.538Z,18.00
2023-03-25T15:16:34.663Z,18.10
2023-03-25T15:19:07.736Z,18.10
2023-03-25T15:22:20.259Z,18.10
2023-03-25T15:24:53.773Z,18.10
2023-03-25T15:27:35.126Z,18.20
2023-03-25T15:30:09.887Z,18.20
2023-03-25T15:32:47.107Z,18.20
2023-03-25T15:35:36.816Z,18.20
2023-03-25T15:38:40.496Z,18.20
2023-03-25T15:41:24.756Z,18.20
2023-03-25T15:44:20.932Z,18.30
2023-03-25T15:47:08.540Z,18.30
2023-03-25T15:49:51.447Z,18.30
2023-03-25T15:52:28.754Z,18.30
2023-03-25T15:54:57.287Z,18.40
2023-03-25T15:57:27.507Z,18.40
2023-03-25T16:00:01.941Z,18.50
2023-03-25T16:02:34.975Z,18.50
2023-03-25T16:05:03.511Z,18.40
2023-03-25T16:07:31.823Z,18.50
2023-03-25T16:10:06.805Z,18.50
2023-03-25T16:12:35.147Z,18.40
2023-03-25T16:15:05.861Z,18.50
2023-03-25T16:17:35.819Z,18.40
2023-03-25T16:20:07.234Z,18.50
2023-03-25T16:22:37.404Z,18.50
2023-03-25T16:25:08.088Z,18.50
2023-03-25T16:27:41.759Z,18.50
2023-03-25T16:30:23.077Z,18.60
2023-03-25T16:32:52.865Z,18.60
2023-03-25T16:35:22.633Z,18.60
2023-03-25T16:37:52.149Z,18.60
2023-03-25T16:40:22.940Z,18.50
2023-03-25T16:42:51.271Z,18.50
2023-03-25T16:45:19.756Z,18.50
2023-03-25T16:47:50.911Z,18.50
2023-03-25T16:50:20.810Z,18.40
2023-03-25T16:52:49.108Z,18.50
2023-03-25T16:55:43.921Z,18.50
2023-03-25T16:58:16.556Z,18.40
2023-03-25T17:00:44.889Z,18.40
2023-03-25T17:03:15.553Z,18.50
2023-03-25T17:05:56.814Z,18.50
2023-03-25T17:08:25.185Z,18.50
2023-03-25T17:10:55.268Z,18.50
2023-03-25T17:13:25.833Z,18.40
2023-03-25T17:15:54.274Z,18.50
2023-03-25T17:18:29.125Z,18.40
2023-03-25T17:21:01.395Z,18.30
2023-03-25T17:23:35.563Z,18.30
2023-03-25T17:26:06.395Z,18.30
2023-03-25T17:28:38.043Z,18.30
2023-03-25T17:31:19.373Z,18.40
2023-03-25T17:33:50.798Z,18.30
2023-03-25T17:36:21.269Z,18.40
2023-03-25T17:38:51.618Z,18.50
2023-03-25T17:41:20.081Z,18.50
2023-03-25T17:43:49.184Z,18.20
2023-03-25T17:46:19.995Z,18.30
2023-03-25T17:48:49.809Z,18.20
2023-03-25T17:51:18.553Z,18.30
2023-03-25T17:53:48.303Z,18.10
2023-03-25T17:56:18.228Z,18.00
2023-03-25T17:58:46.638Z,17.90
2023-03-25T18:01:15.251Z,17.90
2023-03-25T18:03:43.863Z,17.80
2023-03-25T18:06:13.194Z,17.70
2023-03-25T18:08:42.009Z,17.70
2023-03-25T18:11:11.836Z,17.70
2023-03-25T18:13:45.697Z,17.60
2023-03-25T18:16:14.184Z,17.60
2023-03-25T18:18:42.584Z,17.70
2023-03-25T18:21:11.321Z,17.70
2023-03-25T18:23:39.638Z,17.60
2023-03-25T18:26:12.514Z,17.50
2023-03-25T18:28:42.820Z,17.50
2023-03-25T18:31:13.675Z,17.50
2023-03-25T18:33:42.042Z,17.60
2023-03-25T18:36:11.060Z,17.60
2023-03-25T18:38:39.483Z,17.60
2023-03-25T18:41:08.194Z,17.50
2023-03-25T18:43:37.922Z,17.40
2023-03-25T18:46:06.414Z,17.50
2023-03-25T18:48:34.834Z,17.50
2023-03-25T18:51:03.565Z,17.40
2023-03-25T18:53:31.979Z,17.50
2023-03-25T18:56:01.303Z,17.40
2023-03-25T18:58:31.249Z,17.40
2023-03-25T19:01:01.313Z,17.40
2023-03-25T19:03:31.469Z,17.30
2023-03-25T19:06:00.679Z,17.20
2023-03-25T19:08:29.241Z,17.20
2023-03-25T19:11:08.121Z,17.10
2023-03-25T19:13:45.242Z,17.20
2023-03-25T19:16:14.848Z,17.10
2023-03-25T19:18:43.291Z,17.10
2023-03-25T19:21:14.662Z,17.10
2023-03-25T19:23:43.075Z,17.10
2023-03-25T19:26:12.104Z,17.10
2023-03-25T19:28:40.970Z,17.10
2023-03-25T19:31:09.306Z,17.10
2023-03-25T19:33:42.273Z,17.00
2023-03-25T19:36:14.760Z,17.00
2023-03-25T19:38:43.607Z,17.00
2023-03-25T19:41:12.922Z,17.00
2023-03-25T19:43:41.708Z,17.00
2023-03-25T19:46:10.101Z,17.00
2023-03-25T19:48:39.900Z,17.00
2023-03-25T19:51:08.333Z,16.90
2023-03-25T19:53:36.666Z,16.90
2023-03-25T19:56:05.540Z,16.90
2023-03-25T19:58:36.771Z,16.90
2023-03-25T20:01:05.389Z,17.00
2023-03-25T20:03:35.470Z,17.00
2023-03-25T20:06:06.468Z,16.90
2023-03-25T20:08:34.858Z,16.90
2023-03-25T20:11:09.428Z,16.80
2023-03-25T20:13:37.808Z,16.80
2023-03-25T20:16:07.214Z,16.80
2023-03-25T20:18:35.596Z,16.80
2023-03-25T20:21:07.532Z,16.70
2023-03-25T20:23:36.059Z,16.70
2023-03-25T20:26:04.651Z,16.80
2023-03-25T20:28:33.011Z,16.80
2023-03-25T20:31:01.489Z,16.70
2023-03-25T20:33:29.948Z,16.70
2023-03-25T20:35:58.384Z,16.70
2023-03-25T20:38:28.140Z,16.70
2023-03-25T20:40:56.441Z,16.70
2023-03-25T20:43:25.033Z,16.80
2023-03-25T20:45:55.495Z,16.80
2023-03-25T20:48:26.658Z,16.70
2023-03-25T20:51:00.348Z,16.70
2023-03-25T20:53:30.445Z,16.60
2023-03-25T20:55:59.438Z,16.60
2023-03-25T20:58:28.437Z,16.60
2023-03-25T21:00:58.923Z,16.60
2023-03-25T21:03:27.639Z,16.60
2023-03-25T21:05:56.932Z,16.80
2023-03-25T21:08:25.971Z,16.90
2023-03-25T21:10:55.958Z,17.00
2023-03-25T21:13:26.366Z,17.20
2023-03-25T21:15:55.490Z,17.20
2023-03-25T21:18:24.776Z,17.40
2023-03-25T21:20:53.562Z,17.40
2023-03-25T21:23:27.830Z,17.30
2023-03-25T21:26:00.326Z,17.40
2023-03-25T21:28:29.159Z,17.40
2023-03-25T21:31:03.256Z,17.40
2023-03-25T21:33:34.099Z,17.40
2023-03-25T21:36:02.757Z,17.40
2023-03-25T21:38:31.324Z,17.30
2023-03-25T21:41:02.571Z,17.30
2023-03-25T21:43:31.029Z,17.30
2023-03-25T21:46:05.373Z,17.30
2023-03-25T21:48:38.075Z,17.40
2023-03-25T21:51:09.933Z,17.50
2023-03-25T21:53:43.881Z,17.50
2023-03-25T21:56:14.646Z,17.60
2023-03-25T21:58:43.059Z,17.60
2023-03-25T22:01:12.953Z,17.70
2023-03-25T22:03:45.210Z,17.70
2023-03-25T22:06:14.716Z,17.70
2023-03-25T22:08:43.029Z,17.70
2023-03-25T22:11:13.687Z,17.70
2023-03-25T22:13:42.092Z,17.70
2023-03-25T22:16:11.262Z,17.70
2023-03-25T22:18:39.764Z,17.70
2023-03-25T22:21:09.535Z,17.70
2023-03-25T22:23:37.912Z,17.70
2023-03-25T22:26:07.485Z,17.70
2023-03-25T22:28:37.392Z,17.70
2023-03-25T22:31:15.570Z,17.70
2023-03-25T22:33:44.015Z,17.80
2023-03-25T22:36:13.632Z,17.70
2023-03-25T22:38:42.394Z,17.70
2023-03-25T22:41:10.782Z,17.60
2023-03-25T22:43:40.527Z,17.60
2023-03-25T22:46:09.190Z,17.60
2023-03-25T22:48:39.053Z,17.70
2023-03-25T22:51:08.154Z,17.70
2023-03-25T22:53:36.572Z,17.60
2023-03-25T22:56:05.388Z,17.60
2023-03-25T22:58:33.784Z,17.60
2023-03-25T23:01:04.368Z,17.60
2023-03-25T23:03:32.864Z,17.60
2023-03-25T23:06:02.397Z,17.60
2023-03-25T23:08:32.042Z,17.60
2023-03-25T23:11:00.849Z,17.70
2023-03-25T23:13:30.086Z,17.60
2023-03-25T23:15:59.695Z,17.60
2023-03-25T23:18:29.427Z,17.60
2023-03-25T23:21:00.404Z,17.60
2023-03-25T23:23:28.813Z,17.60
2023-03-25T23:26:04.620Z,17.70
2023-03-25T23:28:36.133Z,17.70
2023-03-25T23:31:04.857Z,17.80
2023-03-25T23:33:34.495Z,17.70
2023-03-25T23:36:05.416Z,17.80
2023-03-25T23:38:34.088Z,17.80
2023-03-25T23:41:02.872Z,17.70
2023-03-25T23:43:31.184Z,17.70
2023-03-25T23:46:01.320Z,17.70
2023-03-25T23:48:29.708Z,17.70
2023-03-25T23:50:59.516Z,17.70
2023-03-25T23:53:28.129Z,17.70
2023-03-25T23:55:56.731Z,17.80
2023-03-25T23:58:25.839Z,17.80
